Time;durP1;ratioP1;P1;durP2;ratioP2;P2;SDS_P1;SDS_P2;PMS_P1;PMS_P2;Temp;Humidity;BMP_temperature;BMP_pressure;BME280_temperature;BME280_humidity;BME280_pressure;Samples;Min_cycle;Max_cycle;Signal;HPM_P1;HPM_P2
2022/01/20 00:01:36;;;;;;;3.83;3.40;;;;;;;;;;7405975;19;20139;-77
2022/01/20 00:04:14;;;;;;;6.57;3.28;;;;;;;;;;7419618;19;20159;-76
2022/01/20 00:09:40;;;;;;;3.90;3.00;;;;;;;;;;7429745;19;20136;-76
2022/01/20 00:26:06;;;;;;;4.32;2.70;;;;;;;;;;7382423;19;20152;-79
2022/01/20 00:28:44;;;;;;;5.30;2.80;;;;;;;;;;7385163;19;20789;-78
2022/01/20 00:31:34;;;;;;;6.68;3.15;;;;;;;;;;7381327;19;21087;-78
2022/01/20 00:34:14;;;;;;;3.55;2.97;;;;;;;;;;7378595;19;20144;-79
2022/01/20 00:39:28;;;;;;;4.07;2.47;;;;;;;;;;7379033;19;20136;-77
2022/01/20 00:41:58;;;;;;;4.35;3.20;;;;;;;;;;7378437;19;20154;-78
2022/01/20 00:44:30;;;;;;;5.32;2.47;;;;;;;;;;7378607;19;20707;-77
2022/01/20 00:47:02;;;;;;;4.10;2.78;;;;;;;;;;7373814;19;20140;-77
2022/01/20 00:49:32;;;;;;;3.30;2.55;;;;;;;;;;7374065;19;20248;-78
2022/01/20 00:52:02;;;;;;;3.55;2.70;;;;;;;;;;7377059;19;20154;-77
2022/01/20 00:54:32;;;;;;;4.25;2.60;;;;;;;;;;7374533;19;20143;-78
2022/01/20 00:57:04;;;;;;;2.85;2.50;;;;;;;;;;7378123;19;20136;-78
2022/01/20 00:59:34;;;;;;;3.47;2.60;;;;;;;;;;7375139;19;20523;-78
2022/01/20 01:02:08;;;;;;;5.10;2.90;;;;;;;;;;7368302;19;20607;-77
2022/01/20 01:04:38;;;;;;;3.75;2.85;;;;;;;;;;7376202;19;20139;-76
2022/01/20 01:07:27;;;;;;;5.20;3.28;;;;;;;;;;7375727;19;20158;-76
2022/01/20 01:09:57;;;;;;;4.88;3.00;;;;;;;;;;7372959;19;20140;-77
2022/01/20 01:12:34;;;;;;;3.50;2.65;;;;;;;;;;7373469;19;20603;-78
2022/01/20 01:15:07;;;;;;;5.38;2.63;;;;;;;;;;7375933;19;20147;-77
2022/01/20 01:20:23;;;;;;;3.22;2.45;;;;;;;;;;7377189;19;20889;-76
2022/01/20 01:22:53;;;;;;;4.20;2.45;;;;;;;;;;7370635;19;20135;-77
2022/01/20 01:25:22;;;;;;;3.67;2.42;;;;;;;;;;7374258;19;20154;-76
2022/01/20 01:27:52;;;;;;;2.58;2.00;;;;;;;;;;7372291;19;20163;-77
2022/01/20 01:30:37;;;;;;;2.85;2.10;;;;;;;;;;7372858;19;21377;-77
2022/01/20 01:33:09;;;;;;;3.05;2.20;;;;;;;;;;7372851;19;20135;-76
2022/01/20 01:35:42;;;;;;;2.80;2.30;;;;;;;;;;7375277;19;20128;-77
2022/01/20 01:40:54;;;;;;;2.72;2.13;;;;;;;;;;7373238;19;20151;-77
2022/01/20 01:43:26;;;;;;;3.50;1.85;;;;;;;;;;7374505;19;20769;-77
2022/01/20 01:45:56;;;;;;;2.80;2.00;;;;;;;;;;7370947;19;20216;-78
2022/01/20 01:48:28;;;;;;;2.70;1.98;;;;;;;;;;7375748;19;20154;-77
2022/01/20 01:50:59;;;;;;;5.57;2.47;;;;;;;;;;7376267;19;20142;-77
2022/01/20 01:53:30;;;;;;;2.05;1.60;;;;;;;;;;7372978;19;20145;-76
2022/01/20 01:56:00;;;;;;;2.13;1.58;;;;;;;;;;7370394;19;20147;-78
2022/01/20 01:58:30;;;;;;;2.30;1.85;;;;;;;;;;7374838;19;20179;-77
2022/01/20 02:01:15;;;;;;;2.97;1.80;;;;;;;;;;7366211;19;20131;-77
2022/01/20 02:03:57;;;;;;;2.35;1.75;;;;;;;;;;7371264;19;20139;-77
2022/01/20 02:09:30;;;;;;;2.40;1.60;;;;;;;;;;7374741;19;20164;-77
2022/01/20 02:20:17;;;;;;;2.03;1.83;;;;;;;;;;7383570;19;20172;-77
2022/01/20 02:22:56;;;;;;;2.45;1.60;;;;;;;;;;7386108;19;20244;-77
2022/01/20 02:25:32;;;;;;;1.92;1.40;;;;;;;;;;7393086;19;20485;-77
2022/01/20 02:28:03;;;;;;;2.42;1.88;;;;;;;;;;7397312;19;20131;-77
2022/01/20 02:30:33;;;;;;;2.42;1.85;;;;;;;;;;7400389;19;20639;-77
2022/01/20 02:33:04;;;;;;;3.03;1.85;;;;;;;;;;7395682;19;20134;-76
2022/01/20 02:35:37;;;;;;;1.55;1.45;;;;;;;;;;7384750;19;20240;-77
2022/01/20 02:38:18;;;;;;;1.98;1.38;;;;;;;;;;7382321;19;20143;-76
2022/01/20 02:46:13;;;;;;;2.22;1.60;;;;;;;;;;7372334;19;20135;-76
2022/01/20 02:48:42;;;;;;;1.33;1.20;;;;;;;;;;7373767;19;21644;-77
2022/01/20 02:51:14;;;;;;;1.60;1.50;;;;;;;;;;7371269;19;20154;-76
2022/01/20 02:53:45;;;;;;;1.98;1.85;;;;;;;;;;7364961;19;20149;-76
2022/01/20 02:56:15;;;;;;;3.08;1.63;;;;;;;;;;7370440;19;20150;-77
2022/01/20 02:58:45;;;;;;;1.42;1.33;;;;;;;;;;7367308;19;20578;-76
2022/01/20 03:01:15;;;;;;;2.05;1.38;;;;;;;;;;7361132;19;20150;-73
2022/01/20 03:03:44;;;;;;;1.60;1.50;;;;;;;;;;7371438;19;20255;-76
2022/01/20 03:06:16;;;;;;;1.55;1.25;;;;;;;;;;7373949;19;20136;-77
2022/01/20 03:08:46;;;;;;;1.70;1.35;;;;;;;;;;7368591;19;20695;-76
2022/01/20 03:11:16;;;;;;;2.05;1.40;;;;;;;;;;7376754;19;20135;-77
2022/01/20 03:13:48;;;;;;;2.70;1.48;;;;;;;;;;7408349;19;20161;-78
2022/01/20 03:16:17;;;;;;;1.60;1.20;;;;;;;;;;7421901;19;20139;-76
2022/01/20 03:18:47;;;;;;;1.23;1.13;;;;;;;;;;7420303;19;20128;-77
2022/01/20 03:21:20;;;;;;;2.90;1.30;;;;;;;;;;7416463;19;20138;-77
2022/01/20 03:23:50;;;;;;;1.67;1.25;;;;;;;;;;7417776;19;20139;-77
2022/01/20 03:26:20;;;;;;;1.50;1.13;;;;;;;;;;7416022;19;20168;-76
2022/01/20 03:28:50;;;;;;;1.55;1.08;;;;;;;;;;7420563;19;20127;-77
2022/01/20 03:31:20;;;;;;;1.58;1.48;;;;;;;;;;7408906;19;20127;-76
2022/01/20 03:33:50;;;;;;;1.25;1.00;;;;;;;;;;7431211;19;20145;-76
2022/01/20 03:36:25;;;;;;;1.65;1.35;;;;;;;;;;7433777;19;20151;-76
2022/01/20 03:39:04;;;;;;;1.48;1.13;;;;;;;;;;7433629;19;20139;-76
2022/01/20 03:41:33;;;;;;;2.10;0.95;;;;;;;;;;7435634;19;20171;-77
2022/01/20 03:44:08;;;;;;;1.55;1.30;;;;;;;;;;7434684;19;20132;-76
2022/01/20 03:46:38;;;;;;;0.77;0.60;;;;;;;;;;7437111;19;20167;-77
2022/01/20 03:49:21;;;;;;;2.35;1.23;;;;;;;;;;7431212;19;20789;-78
2022/01/20 03:51:53;;;;;;;1.73;1.30;;;;;;;;;;7403087;19;20150;-77
2022/01/20 03:54:23;;;;;;;2.40;1.60;;;;;;;;;;7403670;19;20131;-77
2022/01/20 03:57:11;;;;;;;1.90;1.42;;;;;;;;;;7395984;19;20143;-77
2022/01/20 03:59:56;;;;;;;1.80;1.40;;;;;;;;;;7390614;19;20550;-77
2022/01/20 04:02:48;;;;;;;1.65;1.48;;;;;;;;;;7385244;19;20163;-77
2022/01/20 04:05:51;;;;;;;2.83;1.73;;;;;;;;;;7391804;19;20638;-76
2022/01/20 04:08:41;;;;;;;1.60;1.45;;;;;;;;;;7388666;19;20627;-76
2022/01/20 04:11:11;;;;;;;1.73;1.63;;;;;;;;;;7388336;19;20147;-77
2022/01/20 04:13:41;;;;;;;1.60;1.45;;;;;;;;;;7388533;19;20136;-77
2022/01/20 04:16:20;;;;;;;1.30;1.20;;;;;;;;;;7385143;19;20468;-76
2022/01/20 04:18:56;;;;;;;1.30;1.20;;;;;;;;;;7386708;19;20144;-78
2022/01/20 04:21:27;;;;;;;1.40;1.30;;;;;;;;;;7379812;19;20143;-76
2022/01/20 04:24:00;;;;;;;2.53;1.88;;;;;;;;;;7371045;19;20143;-76
2022/01/20 04:26:30;;;;;;;1.70;1.50;;;;;;;;;;7378096;19;20181;-77
2022/01/20 04:29:03;;;;;;;2.10;1.75;;;;;;;;;;7376564;19;20143;-77
2022/01/20 04:31:34;;;;;;;2.10;1.70;;;;;;;;;;7374141;19;20158;-77
2022/01/20 04:34:05;;;;;;;1.77;1.67;;;;;;;;;;7377323;19;20143;-77
2022/01/20 04:36:38;;;;;;;2.20;1.77;;;;;;;;;;7375517;19;20135;-76
2022/01/20 04:39:13;;;;;;;2.45;1.80;;;;;;;;;;7377441;19;20173;-76
2022/01/20 04:41:43;;;;;;;2.88;2.00;;;;;;;;;;7376859;19;20924;-77
2022/01/20 04:44:19;;;;;;;2.65;1.63;;;;;;;;;;7374080;19;20135;-78
2022/01/20 04:46:56;;;;;;;2.40;1.73;;;;;;;;;;7374842;19;20135;-76
2022/01/20 04:57:34;;;;;;;2.70;1.67;;;;;;;;;;7372667;19;20154;-78
2022/01/20 05:00:04;;;;;;;1.90;1.63;;;;;;;;;;7373370;19;20200;-78
2022/01/20 05:02:40;;;;;;;3.25;2.47;;;;;;;;;;7367709;19;20416;-76
2022/01/20 05:05:16;;;;;;;3.00;1.92;;;;;;;;;;7376097;19;20165;-81
2022/01/20 05:07:52;;;;;;;2.75;1.70;;;;;;;;;;7378013;19;20139;-78
2022/01/20 05:10:24;;;;;;;2.60;2.40;;;;;;;;;;7372698;19;20238;-78
2022/01/20 05:13:21;;;;;;;2.58;2.15;;;;;;;;;;7374604;19;20235;-77
2022/01/20 05:15:50;;;;;;;2.28;2.08;;;;;;;;;;7371737;19;20135;-77
2022/01/20 05:18:20;;;;;;;2.30;2.10;;;;;;;;;;7368802;19;20484;-76
2022/01/20 05:20:53;;;;;;;2.20;2.00;;;;;;;;;;7373435;19;20151;-77
2022/01/20 05:23:23;;;;;;;5.65;2.00;;;;;;;;;;7369878;19;20607;-77
2022/01/20 05:25:55;;;;;;;2.25;2.05;;;;;;;;;;7367885;19;20181;-78
2022/01/20 05:28:27;;;;;;;3.17;2.10;;;;;;;;;;7368609;19;20155;-78
2022/01/20 05:30:56;;;;;;;2.60;1.92;;;;;;;;;;7368153;19;20132;-78
2022/01/20 05:33:39;;;;;;;2.95;2.30;;;;;;;;;;7368850;19;20144;-78
2022/01/20 05:36:08;;;;;;;2.95;2.15;;;;;;;;;;7365842;19;20515;-78
2022/01/20 05:38:38;;;;;;;2.38;2.00;;;;;;;;;;7368796;19;20151;-78
2022/01/20 05:41:10;;;;;;;3.72;2.45;;;;;;;;;;7368999;19;20151;-77
2022/01/20 05:43:40;;;;;;;2.63;2.00;;;;;;;;;;7373746;19;20147;-78
2022/01/20 05:46:10;;;;;;;5.28;2.15;;;;;;;;;;7372266;19;20140;-77
2022/01/20 05:48:46;;;;;;;2.58;2.00;;;;;;;;;;7373143;19;20139;-76
2022/01/20 05:51:36;;;;;;;3.30;2.00;;;;;;;;;;7376979;19;20155;-76
2022/01/20 05:54:06;;;;;;;2.92;2.47;;;;;;;;;;7374944;19;20139;-77
2022/01/20 05:56:40;;;;;;;3.80;2.30;;;;;;;;;;7372736;19;20160;-76
2022/01/20 05:59:09;;;;;;;3.42;2.35;;;;;;;;;;7371978;19;20182;-77
2022/01/20 06:01:39;;;;;;;9.15;3.10;;;;;;;;;;7362610;19;20139;-77
2022/01/20 06:04:13;;;;;;;14.60;6.75;;;;;;;;;;7372582;19;20488;-77
2022/01/20 06:06:44;;;;;;;7.55;3.17;;;;;;;;;;7371715;19;20467;-77
2022/01/20 06:09:13;;;;;;;8.02;4.65;;;;;;;;;;7374096;19;20142;-77
2022/01/20 06:11:46;;;;;;;8.90;5.38;;;;;;;;;;7377077;19;20807;-77
2022/01/20 06:14:18;;;;;;;7.65;3.60;;;;;;;;;;7380458;19;20282;-76
2022/01/20 06:16:47;;;;;;;8.85;3.05;;;;;;;;;;7376486;19;20987;-77
2022/01/20 06:19:18;;;;;;;6.38;4.13;;;;;;;;;;7378800;19;20560;-79
2022/01/20 06:21:48;;;;;;;16.08;6.38;;;;;;;;;;7376557;19;20148;-77
2022/01/20 06:24:18;;;;;;;12.80;7.80;;;;;;;;;;7379992;19;20131;-77
2022/01/20 06:26:50;;;;;;;7.07;5.30;;;;;;;;;;7387462;19;20155;-77
2022/01/20 06:29:20;;;;;;;4.70;3.67;;;;;;;;;;7390597;19;20855;-77
2022/01/20 06:31:49;;;;;;;23.63;12.10;;;;;;;;;;7396296;19;20523;-78
2022/01/20 06:34:19;;;;;;;10.80;6.65;;;;;;;;;;7398125;19;20162;-76
2022/01/20 06:36:49;;;;;;;8.98;6.03;;;;;;;;;;7399717;19;20132;-77
2022/01/20 06:39:19;;;;;;;6.82;6.03;;;;;;;;;;7390589;19;20155;-77
2022/01/20 06:41:51;;;;;;;4.28;3.45;;;;;;;;;;7383564;19;20173;-78
2022/01/20 06:44:22;;;;;;;5.22;2.47;;;;;;;;;;7374653;19;20148;-77
2022/01/20 06:46:54;;;;;;;2.17;1.75;;;;;;;;;;7402300;19;20163;-77
2022/01/20 06:49:35;;;;;;;2.78;1.90;;;;;;;;;;7415664;19;20149;-77
2022/01/20 06:52:12;;;;;;;4.93;2.05;;;;;;;;;;7415736;19;20135;-76
2022/01/20 06:54:44;;;;;;;3.25;2.17;;;;;;;;;;7407327;19;20136;-76
2022/01/20 06:57:16;;;;;;;3.10;2.00;;;;;;;;;;7411281;19;21027;-77
2022/01/20 06:59:45;;;;;;;2.85;2.25;;;;;;;;;;7409078;19;20179;-76
2022/01/20 07:02:15;;;;;;;2.85;2.55;;;;;;;;;;7401906;19;20143;-77
2022/01/20 07:04:46;;;;;;;3.58;2.30;;;;;;;;;;7402467;19;20156;-76
2022/01/20 07:07:17;;;;;;;5.15;2.20;;;;;;;;;;7412153;19;20165;-78
2022/01/20 07:10:03;;;;;;;4.68;2.50;;;;;;;;;;7417993;19;20148;-75
2022/01/20 07:12:45;;;;;;;2.55;1.60;;;;;;;;;;7418159;19;20139;-76
2022/01/20 07:15:18;;;;;;;5.40;2.75;;;;;;;;;;7421101;19;20131;-75
2022/01/20 07:17:49;;;;;;;2.92;1.55;;;;;;;;;;7422177;19;20176;-76
2022/01/20 07:20:20;;;;;;;3.00;1.90;;;;;;;;;;7421233;19;20213;-75
2022/01/20 07:23:01;;;;;;;6.18;1.55;;;;;;;;;;7425510;19;20139;-75
2022/01/20 07:25:33;;;;;;;1.98;1.50;;;;;;;;;;7403416;19;20139;-75
2022/01/20 07:28:13;;;;;;;2.70;1.83;;;;;;;;;;7387253;19;20603;-75
2022/01/20 07:30:43;;;;;;;2.58;1.50;;;;;;;;;;7390417;19;20646;-75
2022/01/20 07:33:15;;;;;;;2.10;1.90;;;;;;;;;;7381094;19;20241;-75
2022/01/20 07:35:46;;;;;;;2.40;2.00;;;;;;;;;;7381407;19;20135;-75
2022/01/20 07:38:16;;;;;;;6.18;2.10;;;;;;;;;;7382468;19;20136;-76
2022/01/20 07:40:45;;;;;;;5.47;2.30;;;;;;;;;;7373596;19;20146;-76
2022/01/20 07:43:18;;;;;;;2.25;1.80;;;;;;;;;;7374935;19;20143;-75
2022/01/20 07:45:57;;;;;;;6.03;2.85;;;;;;;;;;7372217;19;20139;-75
2022/01/20 07:48:45;;;;;;;3.17;2.00;;;;;;;;;;7377519;19;20248;-75
2022/01/20 07:51:20;;;;;;;2.65;1.83;;;;;;;;;;7375111;19;20143;-75
2022/01/20 07:53:51;;;;;;;5.90;2.67;;;;;;;;;;7373302;19;20722;-76
2022/01/20 07:56:23;;;;;;;4.30;2.28;;;;;;;;;;7370996;19;20144;-76
2022/01/20 07:58:55;;;;;;;2.08;1.95;;;;;;;;;;7379652;19;20248;-77
2022/01/20 08:01:26;;;;;;;4.40;2.95;;;;;;;;;;7373351;19;20618;-78
2022/01/20 08:04:08;;;;;;;3.03;2.05;;;;;;;;;;7376153;19;20143;-79
2022/01/20 08:06:38;;;;;;;3.35;2.25;;;;;;;;;;7374329;19;20248;-76
2022/01/20 08:09:16;;;;;;;2.78;1.95;;;;;;;;;;7376578;19;20203;-77
2022/01/20 08:12:01;;;;;;;3.10;1.75;;;;;;;;;;7379119;19;20136;-77
2022/01/20 08:14:52;;;;;;;8.02;2.95;;;;;;;;;;7374690;19;20205;-78
2022/01/20 08:17:34;;;;;;;8.35;2.83;;;;;;;;;;7379358;19;20485;-77
2022/01/20 08:20:04;;;;;;;5.55;2.20;;;;;;;;;;7378475;19;20177;-77
2022/01/20 08:22:34;;;;;;;12.52;2.95;;;;;;;;;;7381702;19;20236;-76
2022/01/20 08:25:04;;;;;;;3.58;2.00;;;;;;;;;;7376668;19;20696;-77
2022/01/20 08:27:34;;;;;;;4.47;2.83;;;;;;;;;;7372330;19;20160;-77
2022/01/20 08:30:07;;;;;;;6.55;3.88;;;;;;;;;;7376018;19;20169;-77
2022/01/20 08:32:37;;;;;;;5.32;2.58;;;;;;;;;;7374222;19;20131;-79
2022/01/20 08:35:23;;;;;;;3.45;2.10;;;;;;;;;;7374407;19;20189;-77
2022/01/20 08:37:57;;;;;;;4.97;2.40;;;;;;;;;;7374923;19;21001;-78
2022/01/20 08:40:28;;;;;;;2.97;2.30;;;;;;;;;;7377098;19;20165;-78
2022/01/20 08:42:58;;;;;;;3.60;2.45;;;;;;;;;;7370352;19;20157;-77
2022/01/20 08:45:33;;;;;;;6.00;2.53;;;;;;;;;;7370184;19;20139;-77
2022/01/20 08:48:08;;;;;;;7.72;2.90;;;;;;;;;;7375872;19;22253;-78
2022/01/20 08:50:58;;;;;;;9.00;2.60;;;;;;;;;;7371875;19;20167;-78
2022/01/20 08:53:28;;;;;;;5.20;2.10;;;;;;;;;;7373968;19;21184;-75
2022/01/20 08:55:57;;;;;;;13.50;3.13;;;;;;;;;;7369627;19;20132;-74
2022/01/20 08:58:28;;;;;;;5.53;2.78;;;;;;;;;;7374670;19;20187;-74
2022/01/20 09:01:00;;;;;;;8.48;2.75;;;;;;;;;;7359259;19;20140;-71
2022/01/20 09:03:32;;;;;;;6.15;3.20;;;;;;;;;;7367497;19;21295;-77
2022/01/20 09:06:06;;;;;;;6.38;3.20;;;;;;;;;;7367024;19;20258;-75
2022/01/20 09:08:56;;;;;;;8.68;3.40;;;;;;;;;;7369837;19;20171;-76
2022/01/20 09:11:33;;;;;;;7.65;2.53;;;;;;;;;;7369072;19;20459;-80
2022/01/20 09:16:54;;;;;;;5.85;3.00;;;;;;;;;;7363738;19;20828;-67
2022/01/20 09:19:26;;;;;;;5.70;3.15;;;;;;;;;;7363545;19;20246;-67
2022/01/20 09:22:05;;;;;;;12.88;3.40;;;;;;;;;;7368385;19;20139;-68
2022/01/20 09:24:35;;;;;;;6.13;2.70;;;6.20;58.20;;;;;;7364987;19;20147;-69
2022/01/20 09:27:07;;;;;;;6.38;2.75;;;6.30;65.90;;;;;;7355478;19;20158;-68
2022/01/20 09:29:37;;;;;;;6.45;4.15;;;6.40;65.80;;;;;;7360719;19;20187;-70
2022/01/20 09:32:12;;;;;;;7.18;3.03;;;;;;;;;;7347397;19;20408;-78
2022/01/20 09:34:43;;;;;;;7.38;2.90;;;;;;;;;;7366171;19;20242;-83
2022/01/20 09:37:13;;;;;;;4.32;2.60;;;;;;;;;;7361044;19;20504;-81
2022/01/20 09:39:48;;;;;;;3.55;2.80;;;;;;;;;;7370248;19;20134;-82
2022/01/20 09:42:35;;;;;;;9.95;3.53;;;6.40;65.80;;;;;;7372258;19;20166;-80
2022/01/20 09:45:05;;;;;;;3.97;2.00;;;6.90;65.00;;;;;;7363839;19;20841;-80
2022/01/20 09:47:39;;;;;;;5.97;2.67;;;6.90;63.40;;;;;;7370341;19;20150;-85
2022/01/20 09:50:29;;;;;;;6.72;2.88;;;6.90;64.20;;;;;;7372989;19;20148;-83
2022/01/20 09:53:37;;;;;;;7.05;2.97;;;6.80;63.80;;;;;;7376333;19;21046;-86
2022/01/20 09:56:30;;;;;;;5.90;2.45;;;6.80;64.30;;;;;;7369428;19;20147;-80
2022/01/20 09:59:00;;;;;;;7.35;2.60;;;6.80;63.80;;;;;;7368085;19;20565;-85
2022/01/20 10:01:37;;;;;;;8.07;3.17;;;6.80;63.80;;;;;;7367473;19;20606;-81
2022/01/20 10:04:23;;;;;;;5.97;2.05;;;6.80;63.80;;;;;;7370615;19;20230;-84
2022/01/20 10:06:59;;;;;;;9.40;3.38;;;6.90;63.20;;;;;;7372568;19;20174;-79
2022/01/20 10:09:34;;;;;;;9.38;2.78;;;6.90;63.40;;;;;;7376620;19;20150;-82
2022/01/20 10:12:12;;;;;;;17.60;2.70;;;7.00;62.90;;;;;;7371842;19;20146;-79
2022/01/20 10:15:10;;;;;;;5.85;2.40;;;6.90;63.20;;;;;;7372820;19;20167;-80
2022/01/20 10:18:07;;;;;;;6.80;2.35;;;6.90;62.80;;;;;;7376024;19;20165;-81
2022/01/20 10:20:54;;;;;;;9.13;2.67;;;6.70;63.00;;;;;;7375601;19;20634;-79
2022/01/20 10:23:44;;;;;;;10.77;4.63;;;6.70;63.20;;;;;;7390389;19;20147;-81
2022/01/20 10:26:27;;;;;;;28.23;9.70;;;6.70;63.40;;;;;;7417131;19;20200;-88
2022/01/20 10:29:08;;;;;;;7.90;3.53;;;6.70;63.90;;;;;;7414584;19;20131;-80
2022/01/20 10:31:43;;;;;;;12.50;2.72;;;6.80;63.10;;;;;;7409625;19;20175;-85
2022/01/20 10:34:30;;;;;;;10.10;2.45;;;6.90;62.20;;;;;;7396673;19;20170;-84
2022/01/20 10:37:07;;;;;;;7.43;2.70;;;6.90;62.40;;;;;;7408122;19;20132;-85
2022/01/20 10:39:44;;;;;;;8.30;2.92;;;7.00;61.70;;;;;;7390444;19;20420;-88
2022/01/20 10:42:16;;;;;;;7.88;3.00;;;7.10;61.70;;;;;;7403389;19;20383;-77
2022/01/20 10:44:50;;;;;;;10.07;2.55;;;7.10;61.20;;;;;;7404997;19;20135;-73
2022/01/20 10:47:21;;;;;;;6.60;2.47;;;7.10;60.20;;;;;;7406140;19;20436;-75
2022/01/20 10:51:01;;;;;;;4.38;2.53;;;;;;;;;;7382627;19;20825;-36
2022/01/20 10:53:32;;;;;;;5.40;2.42;;;;;;;;;;7404032;19;20146;-36
2022/01/20 10:56:08;;;;;;;9.07;2.15;;;;;;;;;;7373454;19;20157;-35
2022/01/20 10:58:38;;;;;;;7.45;2.90;;;7.00;60.00;;;;;;7377925;19;20145;-35
2022/01/20 11:01:18;;;;;;;8.32;3.10;;;6.90;61.00;;;;;;7383128;19;20154;-35
2022/01/20 11:03:54;;;;;;;9.18;2.88;;;7.00;60.50;;;;;;7395006;19;20145;-36
2022/01/20 11:06:34;;;;;;;3.30;2.40;;;7.20;60.00;;;;;;7400415;19;20131;-35
2022/01/20 11:09:25;;;;;;;6.57;2.78;;;7.20;59.80;;;;;;7391900;19;20218;-35
2022/01/20 11:12:34;;;;;;;6.03;2.80;;;7.10;60.00;;;;;;7403759;19;20488;-35
2022/01/20 11:15:16;;;;;;;11.07;3.03;;;7.10;60.10;;;;;;7400272;19;20139;-36
2022/01/20 11:17:54;;;;;;;4.10;2.22;;;7.00;60.30;;;;;;7391472;19;20561;-36
2022/01/20 11:20:30;;;;;;;9.45;3.13;;;6.90;60.70;;;;;;7399571;19;20145;-36
2022/01/20 11:23:09;;;;;;;4.80;3.00;;;6.90;61.10;;;;;;7400664;19;20137;-36
2022/01/20 11:25:45;;;;;;;6.35;3.10;;;6.90;61.60;;;;;;7392773;19;20366;-36
2022/01/20 11:28:33;;;;;;;10.40;3.60;;;6.90;62.20;;;;;;7395536;19;20139;-36
2022/01/20 11:31:34;;;;;;;5.25;2.95;;;6.90;61.80;;;;;;7389911;19;20511;-36
2022/01/20 11:34:16;;;;;;;8.35;3.42;;;6.80;62.10;;;;;;7390100;19;20526;-36
2022/01/20 11:36:45;;;;;;;4.97;2.60;;;6.70;61.60;;;;;;7402022;19;20649;-36
2022/01/20 11:39:22;;;;;;;5.18;2.72;;;7.00;62.30;;;;;;7390134;19;20127;-36
2022/01/20 11:41:52;;;;;;;8.10;2.30;;;6.80;61.60;;;;;;7386665;19;20135;-36
2022/01/20 11:44:27;;;;;;;8.35;3.00;;;6.80;61.60;;;;;;7393238;19;20131;-36
2022/01/20 11:47:09;;;;;;;6.72;2.20;;;7.00;61.00;;;;;;7381226;19;20123;-36
2022/01/20 11:49:43;;;;;;;5.00;2.60;;;7.10;60.60;;;;;;7372113;19;20151;-36
2022/01/20 11:52:25;;;;;;;3.55;2.35;;;;;;;;;;7388393;19;20138;-36
2022/01/20 11:54:58;;;;;;;4.32;2.70;;;;;;;;;;7365469;19;20485;-36
2022/01/20 11:57:30;;;;;;;3.63;2.03;;;;;;;;;;7355198;19;20159;-36
2022/01/20 12:00:01;;;;;;;4.10;2.28;;;;;;;;;;7393928;19;20131;-36
2022/01/20 12:02:35;;;;;;;3.80;2.60;;;;;;;;;;7342284;19;20251;-36
2022/01/20 12:05:19;;;;;;;6.60;2.13;;;;;;;;;;7351380;19;20128;-36
2022/01/20 12:08:09;;;;;;;4.28;1.90;;;;;;;;;;7365360;19;20741;-36
2022/01/20 12:10:43;;;;;;;6.13;2.33;;;;;;;;;;7363983;19;20166;-36
2022/01/20 12:13:16;;;;;;;3.37;2.00;;;;;;;;;;7373549;19;20166;-36
2022/01/20 12:15:52;;;;;;;7.93;2.37;;;;;;;;;;7358677;19;20924;-36
2022/01/20 12:18:24;;;;;;;4.93;1.70;;;;;;;;;;7359711;19;20395;-36
2022/01/20 12:20:53;;;;;;;3.47;2.17;;;;;;;;;;7371740;19;20945;-36
2022/01/20 12:23:24;;;;;;;9.50;4.43;;;;;;;;;;7349822;19;20453;-36
2022/01/20 12:26:04;;;;;;;23.75;11.13;;;;;;;;;;7352312;19;20391;-36
2022/01/20 12:28:34;;;;;;;6.03;2.58;;;;;;;;;;7356349;19;20994;-36
2022/01/20 12:31:05;;;;;;;3.47;1.50;;;;;;;;;;7356419;19;20135;-36
2022/01/20 12:33:36;;;;;;;2.05;1.30;;;;;;;;;;7363988;19;20207;-35
2022/01/20 12:36:08;;;;;;;2.72;1.25;;;;;;;;;;7357872;19;20154;-36
2022/01/20 12:38:39;;;;;;;4.70;1.33;;;;;;;;;;7369500;19;20124;-36
2022/01/20 12:41:12;;;;;;;4.20;2.30;;;;;;;;;;7350197;19;20146;-35
2022/01/20 12:43:48;;;;;;;269.98;220.32;;;;;;;;;;7349734;19;20132;-36
2022/01/20 12:46:21;;;;;;;10.60;7.78;;;;;;;;;;7342857;19;20128;-36
2022/01/20 12:48:58;;;;;;;4.55;3.08;;;;;;;;;;7329983;19;20215;-36
2022/01/20 12:51:35;;;;;;;6.88;1.65;;;;;;;;;;7361094;19;20142;-36
2022/01/20 12:54:07;;;;;;;1.48;1.35;;;;;;;;;;7363048;19;20185;-36
2022/01/20 12:56:40;;;;;;;7.72;2.65;;;;;;;;;;7368958;19;20208;-36
2022/01/20 12:59:11;;;;;;;4.10;1.60;;;;;;;;;;7363482;19;20602;-36
2022/01/20 13:01:44;;;;;;;2.65;1.73;;;;;;;;;;7344587;19;20168;-36
2022/01/20 13:04:17;;;;;;;5.57;2.05;;;;;;;;;;7360475;19;20134;-36
2022/01/20 13:06:52;;;;;;;3.80;2.35;;;;;;;;;;7366487;19;20139;-36
2022/01/20 13:09:27;;;;;;;5.05;1.35;;;;;;;;;;7367086;19;20135;-36
2022/01/20 13:12:04;;;;;;;5.90;2.15;;;;;;;;;;7359180;19;20138;-36
2022/01/20 13:14:40;;;;;;;3.53;1.92;;;;;;;;;;7365947;19;20603;-36
2022/01/20 13:17:10;;;;;;;8.95;2.08;;;;;;;;;;7331904;19;20186;-36
2022/01/20 13:19:43;;;;;;;9.45;2.78;;;;;;;;;;7367469;19;20610;-36
2022/01/20 13:22:28;;;;;;;1.80;1.23;;;;;;;;;;7365872;19;20172;-36
2022/01/20 13:25:06;;;;;;;3.75;1.70;;;;;;;;;;7356702;19;20150;-36
2022/01/20 13:27:52;;;;;;;7.43;2.10;;;;;;;;;;7354677;19;20131;-36
2022/01/20 13:30:30;;;;;;;3.67;1.83;;;;;;;;;;7356897;19;20578;-36
2022/01/20 13:33:01;;;;;;;4.80;2.10;;;;;;;;;;7362384;19;20614;-36
2022/01/20 13:35:40;;;;;;;3.58;2.20;;;;;;;;;;7365482;19;20169;-36
2022/01/20 13:38:12;;;;;;;9.82;2.20;;;;;;;;;;7362113;19;20147;-36
2022/01/20 13:40:43;;;;;;;5.22;1.73;;;;;;;;;;7368672;19;20732;-36
2022/01/20 13:45:59;;;;;;;7.05;2.50;;;;;;;;;;7371118;19;20167;-35
2022/01/20 13:48:32;;;;;;;5.43;1.77;;;;;;;;;;7363418;19;20136;-36
2022/01/20 13:51:03;;;;;;;4.55;2.40;;;;;;;;;;7355632;19;20139;-36
2022/01/20 13:53:39;;;;;;;6.63;2.08;;;;;;;;;;7364044;19;20165;-36
2022/01/20 13:56:10;;;;;;;6.00;1.85;;;;;;;;;;7367068;19;20140;-36
2022/01/20 13:58:45;;;;;;;5.60;1.67;;;;;;;;;;7369017;19;20135;-36
2022/01/20 14:01:14;;;;;;;3.90;1.90;;;;;;;;;;7363696;19;20170;-36
2022/01/20 14:03:44;;;;;;;4.30;2.42;;;;;;;;;;7365568;19;20136;-36
2022/01/20 14:06:14;;;;;;;4.22;2.10;;;;;;;;;;7363699;19;20139;-35
2022/01/20 14:08:44;;;;;;;3.40;1.80;;;;;;;;;;7353608;19;20150;-35
2022/01/20 14:11:16;;;;;;;30.83;5.10;;;;;;;;;;7363971;19;20131;-35
2022/01/20 14:13:49;;;;;;;5.00;3.40;;;;;;;;;;7364578;19;20131;-35
2022/01/20 14:16:18;;;;;;;6.18;1.80;;;;;;;;;;7365257;19;20127;-35
2022/01/20 14:18:57;;;;;;;4.68;2.15;;;;;;;;;;7372500;19;20139;-35
2022/01/20 14:21:27;;;;;;;9.48;2.42;;;;;;;;;;7373543;19;20138;-35
2022/01/20 14:24:00;;;;;;;6.78;2.85;;;;;;;;;;7370469;19;20764;-35
2022/01/20 14:26:42;;;;;;;5.68;2.03;;;;;;;;;;7367890;19;20138;-35
2022/01/20 14:29:14;;;;;;;4.00;2.33;;;;;;;;;;7368581;19;20127;-35
2022/01/20 14:31:44;;;;;;;13.60;6.25;;;;;;;;;;7372045;19;20149;-35
2022/01/20 14:34:16;;;;;;;6.22;3.60;;;;;;;;;;7374236;19;20485;-35
2022/01/20 14:36:46;;;;;;;6.88;2.58;;;;;;;;;;7368956;19;20614;-35
2022/01/20 14:39:15;;;;;;;6.82;2.20;;;;;;;;;;7369963;19;20147;-35
2022/01/20 14:41:47;;;;;;;5.97;2.60;;;;;;;;;;7366949;19;20136;-35
2022/01/20 14:44:19;;;;;;;4.70;2.30;;;;;;;;;;7362147;19;20135;-35
2022/01/20 14:46:51;;;;;;;5.45;2.50;;;;;;;;;;7370181;19;20577;-35
2022/01/20 14:49:21;;;;;;;6.90;2.40;;;;;;;;;;7365137;19;20143;-35
2022/01/20 14:51:53;;;;;;;5.10;2.45;;;;;;;;;;7364731;19;20487;-35
2022/01/20 14:54:25;;;;;;;8.82;2.85;;;;;;;;;;7370546;19;20127;-35
2022/01/20 14:56:54;;;;;;;4.35;1.92;;;;;;;;;;7364641;19;20131;-34
2022/01/20 14:59:27;;;;;;;4.07;2.35;;;;;;;;;;7366298;19;20143;-35
2022/01/20 15:01:56;;;;;;;6.28;2.70;;;;;;;;;;7360517;19;20633;-35
2022/01/20 15:04:28;;;;;;;8.13;2.85;;;;;;;;;;7368582;19;20127;-35
2022/01/20 15:06:59;;;;;;;8.65;3.22;;;;;;;;;;7368473;19;20162;-35
2022/01/20 15:09:29;;;;;;;5.70;2.67;;;;;;;;;;7368776;19;20136;-35
2022/01/20 15:12:01;;;;;;;6.13;2.25;;;;;;;;;;7365372;19;20671;-35
2022/01/20 15:14:33;;;;;;;5.10;3.25;;;;;;;;;;7359475;19;20128;-35
2022/01/20 15:17:06;;;;;;;10.63;4.22;;;;;;;;;;7369452;19;20605;-34
2022/01/20 15:19:36;;;;;;;9.70;5.10;;;;;;;;;;7370305;19;20140;-35
2022/01/20 15:22:06;;;;;;;7.70;3.22;;;;;;;;;;7365426;19;20135;-35
2022/01/20 15:24:36;;;;;;;5.45;2.35;;;;;;;;;;7371638;19;20173;-35
2022/01/20 15:27:08;;;;;;;4.38;2.60;;;;;;;;;;7367657;19;20691;-35
2022/01/20 15:29:45;;;;;;;6.07;2.50;;;;;;;;;;7364077;19;20123;-35
2022/01/20 15:32:15;;;;;;;6.00;2.47;;;;;;;;;;7364607;19;20190;-35
2022/01/20 15:34:44;;;;;;;7.25;3.00;;;;;;;;;;7370112;19;20127;-35
2022/01/20 15:37:14;;;;;;;4.43;2.08;;;;;;;;;;7373561;19;20146;-35
2022/01/20 15:39:44;;;;;;;6.45;2.35;;;;;;;;;;7378499;19;20174;-35
2022/01/20 15:42:13;;;;;;;7.57;2.40;;;;;;;;;;7374662;19;20136;-35
2022/01/20 15:44:46;;;;;;;4.07;3.05;;;;;;;;;;7378604;19;20138;-35
2022/01/20 15:47:15;;;;;;;5.47;2.45;;;;;;;;;;7375644;19;20224;-35
2022/01/20 15:49:47;;;;;;;7.82;2.58;;;;;;;;;;7373151;19;21012;-35
2022/01/20 15:52:17;;;;;;;4.85;2.17;;;;;;;;;;7367405;19;20147;-35
2022/01/20 15:54:49;;;;;;;9.55;2.40;;;;;;;;;;7368914;19;20494;-35
2022/01/20 15:57:19;;;;;;;4.63;2.92;;;;;;;;;;7371459;19;20158;-35
2022/01/20 15:59:54;;;;;;;3.42;1.85;;;;;;;;;;7347727;19;20127;-35
2022/01/20 16:02:26;;;;;;;3.92;1.90;;;;;;;;;;7368332;19;20194;-35
2022/01/20 16:04:58;;;;;;;6.85;2.42;;;;;;;;;;7376336;19;20139;-35